createdAt,value
2019-03-03T00:01:42.867Z,44.91
2019-03-03T00:04:13.297Z,44.94
2019-03-03T00:06:43.376Z,44.95
2019-03-03T00:09:13.689Z,44.98
2019-03-03T00:11:43.816Z,45.04
2019-03-03T00:14:14.142Z,45.04
2019-03-03T00:16:44.498Z,45.05
2019-03-03T00:19:15.060Z,45.07
2019-03-03T00:21:46.975Z,45.10
2019-03-03T00:24:17.063Z,45.12
2019-03-03T00:26:47.360Z,45.15
2019-03-03T00:29:17.500Z,45.17
2019-03-03T00:31:47.773Z,45.21
2019-03-03T00:34:18.139Z,45.24
2019-03-03T00:37:06.429Z,45.26
2019-03-03T00:39:47.427Z,45.29
2019-03-03T00:42:34.196Z,45.32
2019-03-03T00:45:18.399Z,45.34
2019-03-03T00:47:56.087Z,45.38
2019-03-03T00:50:28.160Z,45.41
2019-03-03T00:53:00.185Z,45.42
2019-03-03T00:55:33.524Z,45.45
2019-03-03T00:58:08.156Z,45.46
2019-03-03T01:00:50.933Z,45.49
2019-03-03T01:03:25.526Z,45.53
2019-03-03T01:06:07.298Z,45.58
2019-03-03T01:08:56.306Z,45.61
2019-03-03T01:11:40.034Z,45.64
2019-03-03T01:14:12.033Z,45.66
2019-03-03T01:16:52.701Z,45.70
2019-03-03T01:19:24.774Z,45.70
2019-03-03T01:21:59.536Z,45.73
2019-03-03T01:24:37.143Z,45.76
2019-03-03T01:27:07.417Z,45.79
2019-03-03T01:29:37.825Z,45.84
2019-03-03T01:32:07.978Z,45.86
2019-03-03T01:34:38.764Z,45.88
2019-03-03T01:37:09.092Z,45.92
2019-03-03T01:39:39.584Z,45.95
2019-03-03T01:42:09.673Z,45.97
2019-03-03T01:44:39.720Z,46.00
2019-03-03T01:47:09.812Z,46.03
2019-03-03T01:49:39.824Z,46.06
2019-03-03T01:52:09.868Z,46.08
2019-03-03T01:54:40.973Z,46.12
2019-03-03T01:57:10.993Z,46.14
2019-03-03T01:59:41.033Z,46.17
2019-03-03T02:02:11.106Z,46.20
2019-03-03T02:04:41.120Z,46.26
2019-03-03T02:07:11.164Z,46.32
2019-03-03T02:09:41.201Z,46.35
2019-03-03T02:12:11.216Z,46.41
2019-03-03T02:14:41.541Z,46.43
2019-03-03T02:17:12.656Z,46.49
2019-03-03T02:19:42.772Z,46.56
2019-03-03T02:22:12.796Z,46.62
2019-03-03T02:24:42.813Z,46.68
2019-03-03T02:27:12.862Z,46.78
2019-03-03T02:29:42.900Z,46.88
2019-03-03T02:32:13.194Z,46.92
2019-03-03T02:34:43.294Z,46.99
2019-03-03T02:37:13.581Z,47.05
2019-03-03T02:39:43.678Z,47.10
2019-03-03T02:42:14.038Z,47.18
2019-03-03T02:44:44.125Z,47.21
2019-03-03T02:47:14.425Z,47.27
2019-03-03T02:49:44.776Z,47.31
2019-03-03T02:52:15.140Z,47.35
2019-03-03T02:54:45.497Z,47.38
2019-03-03T02:57:15.859Z,47.42
2019-03-03T02:59:46.326Z,47.47
2019-03-03T03:02:18.435Z,47.48
2019-03-03T03:04:48.816Z,47.53
2019-03-03T03:07:29.758Z,47.57
2019-03-03T03:10:02.670Z,47.60
2019-03-03T03:12:53.865Z,47.63
2019-03-03T03:15:31.805Z,47.66
2019-03-03T03:18:06.734Z,47.69
2019-03-03T03:20:44.771Z,47.71
2019-03-03T03:23:25.946Z,47.75
2019-03-03T03:26:16.986Z,47.80
2019-03-03T03:28:48.945Z,47.82
2019-03-03T03:31:35.673Z,47.86
2019-03-03T03:34:07.601Z,47.88
2019-03-03T03:36:39.614Z,47.93
2019-03-03T03:39:17.761Z,47.93
2019-03-03T03:42:05.991Z,47.95
2019-03-03T03:44:55.880Z,47.98
2019-03-03T03:47:42.480Z,48.00
2019-03-03T03:50:19.874Z,48.03
2019-03-03T03:52:51.937Z,48.07
2019-03-03T03:55:25.558Z,48.11
2019-03-03T03:57:57.334Z,48.15
2019-03-03T04:00:38.200Z,48.19
2019-03-03T04:03:25.099Z,48.23
2019-03-03T04:06:12.230Z,48.29
2019-03-03T04:08:46.901Z,48.35
2019-03-03T04:11:21.312Z,48.37
2019-03-03T04:14:01.707Z,48.38
2019-03-03T04:16:46.671Z,48.41
2019-03-03T04:19:24.522Z,48.45
2019-03-03T04:21:59.503Z,48.50
2019-03-03T04:24:40.622Z,48.51
2019-03-03T04:27:18.324Z,48.54
2019-03-03T04:29:50.042Z,48.58
2019-03-03T04:32:21.987Z,48.60
2019-03-03T04:35:08.692Z,48.64
2019-03-03T04:37:49.577Z,48.67
2019-03-03T04:40:24.347Z,48.67
2019-03-03T04:43:11.884Z,48.72
2019-03-03T04:45:43.542Z,48.74
2019-03-03T04:48:15.205Z,48.80
2019-03-03T04:50:50.148Z,48.84
2019-03-03T04:53:38.116Z,48.86
2019-03-03T04:56:24.768Z,48.90
2019-03-03T04:58:59.688Z,48.93
2019-03-03T05:01:46.605Z,48.95
2019-03-03T05:04:21.336Z,49.00
2019-03-03T05:06:53.079Z,49.03
2019-03-03T05:09:27.634Z,49.05
2019-03-03T05:12:13.986Z,49.10
2019-03-03T05:14:44.910Z,49.15
2019-03-03T05:17:35.124Z,49.16
2019-03-03T05:20:11.403Z,49.23
2019-03-03T05:22:41.434Z,49.26
2019-03-03T05:25:11.473Z,49.30
2019-03-03T05:27:41.478Z,49.31
2019-03-03T05:30:14.757Z,49.35
2019-03-03T05:32:45.017Z,49.36
2019-03-03T05:35:15.118Z,49.40
2019-03-03T05:37:45.431Z,49.44
2019-03-03T05:40:15.536Z,49.46
2019-03-03T05:42:45.795Z,49.50
2019-03-03T05:45:16.173Z,49.53
2019-03-03T05:47:46.302Z,49.58
2019-03-03T05:50:16.363Z,49.62
2019-03-03T05:52:46.393Z,49.67
2019-03-03T05:55:16.694Z,49.72
2019-03-03T05:57:47.040Z,49.77
2019-03-03T06:00:17.110Z,49.81
2019-03-03T06:02:47.141Z,49.84
2019-03-03T06:05:17.461Z,49.89
2019-03-03T06:07:47.789Z,49.94
2019-03-03T06:10:18.129Z,49.98
2019-03-03T06:12:48.491Z,50.03
2019-03-03T06:15:18.583Z,50.08
2019-03-03T06:17:48.887Z,50.13
2019-03-03T06:20:19.262Z,50.15
2019-03-03T06:22:49.330Z,50.20
2019-03-03T06:25:19.787Z,50.26
2019-03-03T06:27:49.924Z,50.28
2019-03-03T06:30:19.929Z,50.32
2019-03-03T06:32:50.029Z,50.33
2019-03-03T06:35:20.537Z,50.37
2019-03-03T06:37:50.806Z,50.42
2019-03-03T06:40:20.888Z,50.42
2019-03-03T06:42:50.891Z,50.48
2019-03-03T06:45:20.917Z,50.47
2019-03-03T06:47:50.918Z,50.48
2019-03-03T06:50:20.946Z,50.50
2019-03-03T06:52:51.213Z,50.53
2019-03-03T06:55:21.287Z,50.57
2019-03-03T06:57:51.579Z,50.59
2019-03-03T07:00:21.649Z,50.62
2019-03-03T07:02:51.746Z,50.65
2019-03-03T07:05:22.084Z,50.69
2019-03-03T07:07:52.171Z,50.71
2019-03-03T07:10:22.426Z,50.75
2019-03-03T07:12:52.825Z,50.75
2019-03-03T07:15:23.148Z,50.81
2019-03-03T07:17:53.502Z,50.84
2019-03-03T07:20:23.845Z,50.90
2019-03-03T07:22:53.948Z,50.95
2019-03-03T07:25:23.919Z,51.00
2019-03-03T07:27:54.200Z,51.05
2019-03-03T07:30:24.294Z,51.06
2019-03-03T07:33:03.481Z,51.10
2019-03-03T07:35:33.570Z,51.14
2019-03-03T07:38:03.984Z,51.22
2019-03-03T07:40:34.277Z,51.32
2019-03-03T07:43:04.731Z,51.54
2019-03-03T07:45:34.849Z,51.72
2019-03-03T07:48:05.075Z,51.87
2019-03-03T07:50:37.470Z,52.00
2019-03-03T07:53:07.742Z,52.06
2019-03-03T07:55:38.135Z,52.02
2019-03-03T07:58:08.543Z,51.97
2019-03-03T08:00:38.666Z,51.88
2019-03-03T08:03:08.940Z,51.81
2019-03-03T08:05:39.135Z,51.64
2019-03-03T08:08:09.181Z,51.50
2019-03-03T08:10:39.464Z,51.34
2019-03-03T08:13:09.888Z,51.17
2019-03-03T08:15:42.313Z,51.00
2019-03-03T08:18:12.479Z,50.81
2019-03-03T08:20:42.527Z,50.62
2019-03-03T08:23:13.383Z,50.45
2019-03-03T08:25:43.441Z,50.31
2019-03-03T08:28:13.759Z,50.13
2019-03-03T08:30:43.826Z,49.96
2019-03-03T08:33:15.391Z,49.77
2019-03-03T08:35:45.464Z,49.58
2019-03-03T08:38:15.750Z,49.39
2019-03-03T08:40:46.077Z,49.21
2019-03-03T08:43:27.974Z,48.97
2019-03-03T08:46:16.985Z,48.73
2019-03-03T08:48:59.223Z,48.49
2019-03-03T08:51:42.804Z,48.30
2019-03-03T08:54:14.523Z,48.15
2019-03-03T08:56:49.135Z,48.00
2019-03-03T08:59:20.815Z,47.81
2019-03-03T09:01:58.837Z,47.66
2019-03-03T09:04:47.613Z,47.50
2019-03-03T09:07:22.001Z,47.38
2019-03-03T09:10:02.155Z,47.22
2019-03-03T09:12:36.920Z,47.15
2019-03-03T09:15:28.200Z,47.08
2019-03-03T09:18:00.162Z,47.02
2019-03-03T09:20:32.031Z,47.02
2019-03-03T09:23:06.106Z,47.04
2019-03-03T09:25:49.983Z,47.07
2019-03-03T09:28:37.809Z,47.10
2019-03-03T09:31:25.486Z,47.10
2019-03-03T09:33:57.369Z,47.07
2019-03-03T09:36:35.895Z,47.02
2019-03-03T09:39:17.649Z,47.02
2019-03-03T09:41:49.303Z,47.04
2019-03-03T09:44:37.183Z,47.04
2019-03-03T09:47:11.904Z,47.06
2019-03-03T09:49:58.401Z,47.03
2019-03-03T09:52:53.523Z,46.99
2019-03-03T09:55:28.554Z,46.96
2019-03-03T09:58:09.725Z,46.91
2019-03-03T10:00:44.630Z,46.89
2019-03-03T10:03:22.488Z,46.86
2019-03-03T10:05:54.144Z,46.82
2019-03-03T10:08:31.893Z,46.85
2019-03-03T10:11:06.223Z,46.91
2019-03-03T10:13:38.167Z,46.95
2019-03-03T10:16:19.073Z,46.96
2019-03-03T10:18:53.274Z,46.96
2019-03-03T10:21:37.107Z,46.90
2019-03-03T10:24:08.853Z,46.87
2019-03-03T10:26:52.683Z,46.87
2019-03-03T10:29:33.309Z,46.85
2019-03-03T10:32:25.879Z,46.79
2019-03-03T10:35:06.704Z,46.73
2019-03-03T10:37:38.688Z,46.66
2019-03-03T10:40:27.817Z,46.60
2019-03-03T10:42:59.610Z,46.52
2019-03-03T10:45:47.719Z,46.46
2019-03-03T10:48:31.634Z,46.40
2019-03-03T10:51:20.053Z,46.36
2019-03-03T10:53:51.942Z,46.32
2019-03-03T10:56:27.053Z,46.28
2019-03-03T10:58:59.088Z,46.24
2019-03-03T11:01:39.683Z,46.19
2019-03-03T11:04:20.264Z,46.15
2019-03-03T11:07:10.445Z,46.14
2019-03-03T11:09:45.103Z,46.11
2019-03-03T11:12:23.167Z,46.09
2019-03-03T11:14:57.661Z,46.08
2019-03-03T11:17:45.440Z,46.08
2019-03-03T11:20:17.118Z,46.08
2019-03-03T11:22:48.784Z,46.11
2019-03-03T11:25:32.303Z,46.09
2019-03-03T11:28:04.001Z,46.10
2019-03-03T11:30:41.388Z,46.11
2019-03-03T11:33:31.064Z,46.12
2019-03-03T11:36:14.598Z,46.16
2019-03-03T11:38:47.166Z,46.19
2019-03-03T11:41:18.898Z,46.21
2019-03-03T11:43:49.607Z,46.23
2019-03-03T11:46:21.770Z,46.27
2019-03-03T11:48:59.962Z,46.26
2019-03-03T11:51:30.060Z,46.30
2019-03-03T11:54:08.043Z,46.31
2019-03-03T11:56:40.007Z,46.35
2019-03-03T11:59:28.299Z,46.37
2019-03-03T12:02:02.975Z,46.41
2019-03-03T12:04:47.028Z,46.45
2019-03-03T12:07:21.983Z,46.49
2019-03-03T12:10:05.548Z,46.55
2019-03-03T12:12:53.665Z,46.60
2019-03-03T12:15:28.327Z,46.66
2019-03-03T12:18:08.787Z,46.71
2019-03-03T12:20:40.781Z,46.76
2019-03-03T12:23:24.311Z,46.82
2019-03-03T12:26:01.580Z,46.87
2019-03-03T12:28:36.168Z,46.94
2019-03-03T12:31:24.177Z,46.98
2019-03-03T12:33:56.073Z,47.03
2019-03-03T12:36:44.225Z,47.07
2019-03-03T12:39:22.128Z,47.10
2019-03-03T12:41:54.090Z,47.18
2019-03-03T12:44:38.035Z,47.24
2019-03-03T12:47:26.088Z,47.29
2019-03-03T12:50:15.882Z,47.35
2019-03-03T12:52:57.181Z,47.44
2019-03-03T12:55:45.067Z,47.53
2019-03-03T12:58:17.778Z,47.62
2019-03-03T13:00:49.429Z,47.73
2019-03-03T13:03:37.402Z,47.81
2019-03-03T13:06:25.545Z,47.87
2019-03-03T13:09:00.318Z,47.95
2019-03-03T13:11:33.664Z,47.97
2019-03-03T13:14:09.450Z,48.01
2019-03-03T13:16:51.527Z,48.06
2019-03-03T13:19:23.238Z,48.09
2019-03-03T13:22:11.185Z,48.13
2019-03-03T13:24:43.216Z,48.16
2019-03-03T13:27:26.744Z,48.22
2019-03-03T13:29:58.641Z,48.24
2019-03-03T13:32:36.343Z,48.27
2019-03-03T13:35:11.127Z,48.31
2019-03-03T13:37:41.172Z,48.36
2019-03-03T13:40:16.281Z,48.41
2019-03-03T13:42:46.330Z,48.44
2019-03-03T13:45:16.923Z,48.50
2019-03-03T13:47:47.016Z,48.55
2019-03-03T13:50:17.026Z,48.59
2019-03-03T13:52:48.150Z,48.63
2019-03-03T13:55:18.210Z,48.67
2019-03-03T13:57:48.738Z,48.70
2019-03-03T14:00:23.552Z,48.75
2019-03-03T14:02:53.642Z,48.77
2019-03-03T14:05:23.664Z,48.83
2019-03-03T14:07:53.684Z,48.89
2019-03-03T14:10:23.996Z,48.93
2019-03-03T14:12:54.075Z,48.97
2019-03-03T14:15:24.337Z,49.02
2019-03-03T14:17:54.538Z,49.05
2019-03-03T14:20:24.824Z,49.09
2019-03-03T14:22:54.865Z,49.13
2019-03-03T14:25:25.137Z,49.15
2019-03-03T14:27:55.259Z,49.20
2019-03-03T14:30:28.699Z,49.23
2019-03-03T14:32:58.920Z,49.28
2019-03-03T14:35:28.973Z,49.33
2019-03-03T14:37:59.238Z,49.38
2019-03-03T14:40:29.586Z,49.40
2019-03-03T14:42:59.911Z,49.47
2019-03-03T14:45:30.314Z,49.50
2019-03-03T14:48:00.402Z,49.56
2019-03-03T14:50:30.429Z,49.60
2019-03-03T14:53:00.693Z,49.64
2019-03-03T14:55:30.778Z,49.70
2019-03-03T14:58:00.775Z,49.74
2019-03-03T15:00:34.045Z,49.82
2019-03-03T15:03:06.281Z,49.87
2019-03-03T15:05:36.298Z,49.93
2019-03-03T15:08:06.358Z,49.98
2019-03-03T15:10:36.674Z,50.03
2019-03-03T15:13:06.736Z,50.10
2019-03-03T15:15:39.558Z,50.15
2019-03-03T15:18:09.648Z,50.21
2019-03-03T15:20:40.435Z,50.26
2019-03-03T15:23:12.575Z,50.34
2019-03-03T15:25:42.906Z,50.38
2019-03-03T15:28:13.237Z,50.46
2019-03-03T15:30:44.840Z,50.52
2019-03-03T15:33:16.619Z,50.57
2019-03-03T15:35:46.924Z,50.63
2019-03-03T15:38:18.125Z,50.70
2019-03-03T15:40:48.702Z,50.73
2019-03-03T15:43:20.035Z,50.79
2019-03-03T15:45:50.325Z,50.84
2019-03-03T15:48:20.872Z,50.90
2019-03-03T15:50:51.413Z,50.95
2019-03-03T15:53:21.479Z,51.00
2019-03-03T15:55:51.734Z,51.05
2019-03-03T15:58:22.080Z,51.12
2019-03-03T16:00:52.593Z,51.17
2019-03-03T16:03:22.660Z,51.21
2019-03-03T16:05:52.659Z,51.26
2019-03-03T16:08:22.658Z,51.31
2019-03-03T16:10:52.978Z,51.35
2019-03-03T16:13:23.057Z,51.41
2019-03-03T16:15:53.348Z,51.45
2019-03-03T16:18:23.713Z,51.49
2019-03-03T16:20:54.080Z,51.55
2019-03-03T16:23:25.492Z,51.59
2019-03-03T16:25:55.578Z,51.63
2019-03-03T16:28:25.969Z,51.67
2019-03-03T16:30:56.317Z,51.71
2019-03-03T16:33:26.654Z,51.76
2019-03-03T16:35:57.008Z,51.79
2019-03-03T16:38:27.119Z,51.85
2019-03-03T16:40:57.086Z,51.88
2019-03-03T16:43:27.548Z,51.93
2019-03-03T16:45:57.870Z,51.98
2019-03-03T16:48:28.325Z,52.03
2019-03-03T16:50:58.659Z,52.06
2019-03-03T16:53:29.005Z,52.11
2019-03-03T16:55:59.094Z,52.15
2019-03-03T16:58:29.344Z,52.21
2019-03-03T17:00:59.442Z,52.25
2019-03-03T17:03:29.442Z,52.31
2019-03-03T17:05:59.490Z,52.34
2019-03-03T17:08:29.726Z,52.40
2019-03-03T17:11:00.114Z,52.44
2019-03-03T17:13:30.415Z,52.50
2019-03-03T17:16:00.758Z,52.53
2019-03-03T17:18:31.819Z,52.57
2019-03-03T17:21:02.581Z,52.62
2019-03-03T17:23:34.114Z,52.68
2019-03-03T17:26:04.113Z,52.72
2019-03-03T17:28:34.193Z,52.78
2019-03-03T17:31:04.570Z,52.82
2019-03-03T17:33:35.409Z,52.88
2019-03-03T17:36:05.483Z,52.91
2019-03-03T17:38:36.916Z,52.98
2019-03-03T17:41:07.006Z,53.03
2019-03-03T17:43:37.265Z,53.07
2019-03-03T17:46:07.359Z,53.11
2019-03-03T17:48:37.363Z,53.14
2019-03-03T17:51:07.407Z,53.20
2019-03-03T17:53:37.676Z,53.24
2019-03-03T17:56:07.813Z,53.28
2019-03-03T17:58:38.078Z,53.32
2019-03-03T18:01:09.637Z,53.34
2019-03-03T18:03:39.994Z,53.37
2019-03-03T18:06:10.430Z,53.42
2019-03-03T18:08:40.761Z,53.44
2019-03-03T18:11:11.130Z,53.49
2019-03-03T18:13:41.454Z,53.49
2019-03-03T18:16:12.370Z,53.54
2019-03-03T18:18:42.719Z,53.55
2019-03-03T18:21:13.040Z,53.59
2019-03-03T18:23:43.130Z,53.61
2019-03-03T18:26:13.420Z,53.67
2019-03-03T18:28:43.748Z,53.69
2019-03-03T18:31:14.094Z,53.74
2019-03-03T18:33:44.460Z,53.77
2019-03-03T18:36:14.695Z,53.80
2019-03-03T18:38:44.986Z,53.86
2019-03-03T18:41:15.079Z,53.90
2019-03-03T18:43:45.103Z,53.96
2019-03-03T18:46:15.118Z,54.02
2019-03-03T18:48:45.117Z,54.05
2019-03-03T18:51:15.154Z,54.12
2019-03-03T18:53:45.253Z,54.17
2019-03-03T18:56:15.250Z,54.22
2019-03-03T18:58:45.336Z,54.28
2019-03-03T19:01:15.359Z,54.33
2019-03-03T19:03:45.632Z,54.41
2019-03-03T19:06:15.743Z,54.47
2019-03-03T19:08:45.767Z,54.53
2019-03-03T19:11:17.354Z,54.60
2019-03-03T19:13:47.737Z,54.66
2019-03-03T19:16:17.795Z,54.75
2019-03-03T19:18:47.831Z,54.81
2019-03-03T19:21:17.842Z,54.86
2019-03-03T19:23:48.097Z,54.94
2019-03-03T19:26:19.089Z,55.00
2019-03-03T19:28:49.213Z,55.09
2019-03-03T19:31:20.904Z,55.14
2019-03-03T19:33:55.085Z,55.20
2019-03-03T19:36:25.182Z,55.29
2019-03-03T19:38:55.241Z,55.37
2019-03-03T19:41:25.529Z,55.42
2019-03-03T19:43:55.574Z,55.50
2019-03-03T19:46:26.088Z,55.56
2019-03-03T19:48:56.190Z,55.63
2019-03-03T19:51:26.205Z,55.71
2019-03-03T19:53:56.876Z,55.77
2019-03-03T19:56:27.098Z,55.83
2019-03-03T19:58:57.144Z,55.92
2019-03-03T20:01:27.395Z,55.98
2019-03-03T20:03:57.757Z,56.03
2019-03-03T20:06:28.098Z,56.09
2019-03-03T20:08:58.183Z,56.18
2019-03-03T20:11:28.375Z,56.24
2019-03-03T20:13:58.696Z,56.30
2019-03-03T20:16:28.791Z,56.36
2019-03-03T20:18:59.023Z,56.43
2019-03-03T20:21:29.419Z,56.50
2019-03-03T20:23:59.481Z,56.56
2019-03-03T20:26:29.495Z,56.63
2019-03-03T20:28:59.530Z,56.68
2019-03-03T20:31:29.550Z,56.76
2019-03-03T20:33:59.541Z,56.82
2019-03-03T20:36:29.578Z,56.88
2019-03-03T20:38:59.840Z,56.94
2019-03-03T20:41:30.351Z,57.02
2019-03-03T20:44:00.436Z,57.07
2019-03-03T20:46:30.488Z,57.15
2019-03-03T20:49:00.480Z,57.19
2019-03-03T20:51:30.541Z,57.26
2019-03-03T20:54:00.807Z,57.31
2019-03-03T20:56:30.894Z,57.38
2019-03-03T20:59:00.903Z,57.45
2019-03-03T21:01:30.929Z,57.51
2019-03-03T21:04:01.203Z,57.57
2019-03-03T21:06:31.537Z,57.63
2019-03-03T21:09:01.627Z,57.68
2019-03-03T21:11:33.370Z,57.74
2019-03-03T21:14:03.878Z,57.81
2019-03-03T21:16:34.389Z,57.88
2019-03-03T21:19:04.537Z,57.94
2019-03-03T21:21:34.544Z,58.01
2019-03-03T21:24:04.554Z,58.06
2019-03-03T21:26:34.603Z,58.10
2019-03-03T21:29:04.629Z,58.18
2019-03-03T21:31:35.855Z,58.22
2019-03-03T21:34:05.942Z,58.28
2019-03-03T21:36:35.948Z,58.32
2019-03-03T21:39:07.558Z,58.38
2019-03-03T21:41:38.255Z,58.45
2019-03-03T21:44:08.606Z,58.52
2019-03-03T21:46:38.720Z,58.56
2019-03-03T21:49:08.721Z,58.61
2019-03-03T21:51:38.976Z,58.67
2019-03-03T21:54:09.331Z,58.73
2019-03-03T21:56:39.695Z,58.80
2019-03-03T21:59:09.751Z,58.85
2019-03-03T22:01:40.031Z,58.91
2019-03-03T22:04:10.118Z,58.97
2019-03-03T22:06:40.439Z,59.01
2019-03-03T22:09:10.469Z,59.07
2019-03-03T22:11:42.115Z,59.14
2019-03-03T22:14:12.155Z,59.17
2019-03-03T22:16:42.172Z,59.23
2019-03-03T22:19:12.179Z,59.30
2019-03-03T22:21:42.223Z,59.34
2019-03-03T22:24:12.536Z,59.38
2019-03-03T22:26:42.739Z,59.44
2019-03-03T22:29:12.748Z,59.50
2019-03-03T22:31:42.770Z,59.54
2019-03-03T22:34:13.065Z,59.59
2019-03-03T22:36:43.099Z,59.65
2019-03-03T22:39:15.596Z,59.67
2019-03-03T22:41:45.632Z,59.72
2019-03-03T22:44:15.630Z,59.77
2019-03-03T22:46:45.909Z,59.82
2019-03-03T22:49:16.280Z,59.89
2019-03-03T22:51:46.595Z,59.90
2019-03-03T22:54:16.944Z,59.97
2019-03-03T22:56:47.014Z,60.03
2019-03-03T22:59:17.056Z,60.06
2019-03-03T23:01:47.320Z,60.11
2019-03-03T23:04:20.782Z,60.17
2019-03-03T23:07:01.757Z,60.21
2019-03-03T23:09:55.517Z,60.24
2019-03-03T23:12:45.500Z,60.29
2019-03-03T23:15:33.580Z,60.35
2019-03-03T23:18:09.892Z,60.41
2019-03-03T23:20:59.758Z,60.46
2019-03-03T23:23:45.072Z,60.50
2019-03-03T23:26:16.909Z,60.55
2019-03-03T23:28:47.424Z,60.58
2019-03-03T23:31:17.703Z,60.64
2019-03-03T23:33:49.051Z,60.69
2019-03-03T23:36:19.030Z,60.72
2019-03-03T23:38:49.282Z,60.76
2019-03-03T23:41:19.393Z,60.81
2019-03-03T23:43:49.414Z,60.85
2019-03-03T23:46:19.667Z,60.89
2019-03-03T23:48:50.017Z,60.95
2019-03-03T23:51:20.085Z,61.00
2019-03-03T23:53:50.402Z,61.03
2019-03-03T23:56:20.750Z,61.06
2019-03-03T23:58:50.813Z,61.11
